Time;durP1;ratioP1;P1;durP2;ratioP2;P2;SDS_P1;SDS_P2;PMS_P1;PMS_P2;Temp;Humidity;BMP_temperature;BMP_pressure;BME280_temperature;BME280_humidity;BME280_pressure;Samples;Min_cycle;Max_cycle;Signal;HPM_P1;HPM_P2
2023/05/27 00:01:48;;;;;;;10.35;3.30;;;15.30;1.00;;;;;;7370017;19;20518;-68
2023/05/27 00:04:18;;;;;;;11.18;3.47;;;15.30;1.00;;;;;;7369764;19;20425;-68
2023/05/27 00:06:48;;;;;;;14.50;4.57;;;15.30;1.00;;;;;;7370685;19;20018;-69
2023/05/27 00:09:18;;;;;;;14.55;4.68;;;15.20;1.00;;;;;;7386440;19;20011;-70
2023/05/27 00:11:51;;;;;;;12.07;3.95;;;15.20;1.00;;;;;;7367926;19;20431;-68
2023/05/27 00:14:21;;;;;;;10.57;3.70;;;15.10;1.00;;;;;;7370064;19;20836;-68
2023/05/27 00:16:52;;;;;;;13.02;3.85;;;15.10;1.00;;;;;;7370590;19;20638;-69
2023/05/27 00:19:23;;;;;;;10.77;3.88;;;15.10;1.00;;;;;;7367043;19;20015;-68
2023/05/27 00:21:54;;;;;;;9.75;3.88;;;15.00;1.00;;;;;;7369625;19;20012;-68
2023/05/27 00:24:25;;;;;;;11.35;4.30;;;15.00;1.00;;;;;;7390482;19;20088;-68
2023/05/27 00:26:58;;;;;;;14.45;4.25;;;15.00;1.00;;;;;;7367366;19;20018;-68
2023/05/27 00:29:28;;;;;;;12.65;4.07;;;15.00;1.00;;;;;;7367511;19;20082;-67
2023/05/27 00:31:58;;;;;;;16.08;3.83;;;14.90;1.00;;;;;;7366354;19;20021;-69
2023/05/27 00:34:28;;;;;;;8.80;3.60;;;14.90;1.00;;;;;;7368793;19;20043;-69
2023/05/27 00:36:58;;;;;;;12.77;4.85;;;14.90;1.00;;;;;;7369271;19;20022;-69
2023/05/27 00:39:28;;;;;;;9.02;3.72;;;14.90;1.00;;;;;;7389146;19;20023;-69
2023/05/27 00:42:00;;;;;;;13.38;4.28;;;14.90;1.00;;;;;;7368534;19;20014;-69
2023/05/27 00:44:30;;;;;;;8.73;3.75;;;14.80;1.00;;;;;;7367678;19;20048;-68
2023/05/27 00:47:00;;;;;;;15.25;3.70;;;14.80;1.00;;;;;;7368748;19;20014;-69
2023/05/27 00:49:30;;;;;;;10.80;3.70;;;14.80;1.00;;;;;;7367920;19;20031;-69
2023/05/27 00:52:00;;;;;;;14.40;3.75;;;14.80;1.00;;;;;;7367206;19;20024;-69
2023/05/27 00:54:31;;;;;;;12.90;4.05;;;14.70;1.00;;;;;;7389842;19;20025;-69
2023/05/27 00:57:05;;;;;;;7.97;3.50;;;14.70;1.00;;;;;;7367491;19;20376;-69
2023/05/27 00:59:36;;;;;;;11.35;3.85;;;14.70;1.00;;;;;;7366814;19;20474;-69
2023/05/27 01:02:07;;;;;;;10.18;3.80;;;14.60;1.00;;;;;;7368029;19;20017;-69
2023/05/27 01:04:37;;;;;;;10.20;4.10;;;14.60;1.00;;;;;;7368238;19;20093;-69
2023/05/27 01:07:16;;;;;;;13.98;4.28;;;14.50;1.00;;;;;;7367612;19;20046;-69
2023/05/27 01:09:52;;;;;;;12.95;4.30;;;14.50;1.00;;;;;;7366783;19;20048;-69
2023/05/27 01:12:33;;;;;;;12.77;3.92;;;14.40;1.00;;;;;;7389007;19;20007;-69
2023/05/27 01:15:07;;;;;;;12.23;4.03;;;14.30;1.00;;;;;;7368212;19;20014;-69
2023/05/27 01:17:42;;;;;;;12.45;3.95;;;14.30;1.00;;;;;;7367124;19;20018;-69
2023/05/27 01:20:14;;;;;;;8.55;3.70;;;14.20;1.00;;;;;;7365622;19;20018;-67
2023/05/27 01:22:52;;;;;;;10.70;4.57;;;14.20;1.00;;;;;;7367346;19;20021;-68
2023/05/27 01:25:22;;;;;;;10.55;3.95;;;14.20;1.00;;;;;;7366388;19;20365;-68
2023/05/27 01:27:52;;;;;;;12.93;4.35;;;14.10;1.00;;;;;;7366997;19;20079;-68
2023/05/27 01:30:22;;;;;;;8.15;3.75;;;14.10;1.00;;;;;;7388523;19;20018;-68
2023/05/27 01:32:57;;;;;;;16.63;4.03;;;14.10;1.00;;;;;;7365728;19;20532;-69
2023/05/27 01:35:33;;;;;;;8.23;3.88;;;14.00;1.00;;;;;;7367137;19;20025;-69
2023/05/27 01:38:10;;;;;;;14.75;4.10;;;14.00;1.00;;;;;;7366672;19;20014;-68
2023/05/27 01:40:42;;;;;;;10.60;4.40;;;14.00;1.00;;;;;;7367586;19;20474;-68
2023/05/27 01:43:14;;;;;;;11.40;4.13;;;14.00;1.00;;;;;;7366365;19;20066;-68
2023/05/27 01:45:45;;;;;;;13.15;3.38;;;13.90;1.00;;;;;;7367018;19;20110;-68
2023/05/27 01:48:16;;;;;;;11.52;4.22;;;13.90;1.00;;;;;;7388166;19;20019;-68
2023/05/27 01:50:46;;;;;;;8.75;4.03;;;13.90;1.00;;;;;;7365856;19;20026;-69
2023/05/27 01:53:18;;;;;;;11.73;4.00;;;14.00;1.00;;;;;;7365610;19;20398;-68
2023/05/27 01:55:48;;;;;;;17.08;4.65;;;13.90;1.00;;;;;;7367955;19;20014;-68
2023/05/27 01:58:18;;;;;;;11.15;4.05;;;13.90;1.00;;;;;;7365504;19;20010;-68
2023/05/27 02:00:50;;;;;;;13.38;4.13;;;13.80;1.00;;;;;;7365797;19;20038;-69
2023/05/27 02:03:21;;;;;;;15.23;4.07;;;13.80;1.00;;;;;;7388404;19;20019;-68
2023/05/27 02:05:51;;;;;;;16.50;4.25;;;13.70;1.00;;;;;;7366779;19;20093;-69
2023/05/27 02:08:24;;;;;;;11.35;3.67;;;13.80;1.00;;;;;;7348107;19;20041;-68
2023/05/27 02:10:54;;;;;;;15.55;4.47;;;13.80;1.00;;;;;;7365513;19;20015;-68
2023/05/27 02:13:24;;;;;;;11.43;3.83;;;13.80;1.00;;;;;;7365086;19;20006;-68
2023/05/27 02:15:54;;;;;;;13.02;4.30;;;13.70;1.00;;;;;;7366713;19;20018;-68
2023/05/27 02:18:25;;;;;;;15.15;3.97;;;13.60;1.00;;;;;;7385358;19;20019;-68
2023/05/27 02:20:56;;;;;;;15.55;3.70;;;13.60;1.00;;;;;;7363561;19;20021;-68
2023/05/27 02:23:28;;;;;;;12.35;4.65;;;13.50;1.00;;;;;;7363283;19;20042;-68
2023/05/27 02:25:58;;;;;;;8.27;4.05;;;13.50;1.00;;;;;;7367249;19;20018;-67
2023/05/27 02:28:28;;;;;;;11.10;4.10;;;13.40;1.00;;;;;;7364521;19;20018;-68
2023/05/27 02:30:59;;;;;;;14.88;4.13;;;13.30;1.00;;;;;;7363461;19;20551;-68
2023/05/27 02:33:30;;;;;;;10.07;3.88;;;13.30;1.00;;;;;;7384563;19;20364;-68
2023/05/27 02:36:00;;;;;;;12.07;3.88;;;13.30;1.00;;;;;;7365669;19;21463;-68
2023/05/27 02:38:32;;;;;;;9.85;3.78;;;13.20;1.00;;;;;;7364184;19;20030;-68
2023/05/27 02:41:02;;;;;;;12.73;4.15;;;13.20;1.00;;;;;;7364934;19;20906;-68
2023/05/27 02:43:32;;;;;;;13.90;4.18;;;13.10;1.00;;;;;;7365294;19;20057;-68
2023/05/27 02:46:02;;;;;;;12.00;4.10;;;13.10;1.00;;;;;;7365008;19;20015;-68
2023/05/27 02:48:32;;;;;;;14.43;4.93;;;13.00;1.00;;;;;;7385192;19;20476;-68
2023/05/27 02:51:02;;;;;;;12.20;5.00;;;12.90;1.00;;;;;;7362634;19;20097;-69
2023/05/27 02:53:35;;;;;;;14.07;4.38;;;12.80;1.00;;;;;;7362300;19;20110;-68
2023/05/27 02:56:05;;;;;;;11.35;4.20;;;12.80;1.00;;;;;;7364655;19;20086;-68
2023/05/27 02:58:35;;;;;;;12.57;3.65;;;12.70;1.00;;;;;;7362983;19;20010;-68
2023/05/27 03:01:05;;;;;;;10.90;3.95;;;12.60;1.00;;;;;;7363318;19;20014;-69
2023/05/27 03:03:35;;;;;;;10.70;4.65;;;12.60;1.00;;;;;;7385948;19;20315;-68
2023/05/27 03:06:05;;;;;;;16.30;4.65;;;12.50;1.00;;;;;;7365021;19;20095;-68
2023/05/27 03:08:38;;;;;;;10.43;4.53;;;12.40;1.00;;;;;;7362141;19;20022;-68
2023/05/27 03:11:08;;;;;;;12.73;4.82;;;12.40;1.00;;;;;;7363872;19;20082;-68
2023/05/27 03:13:38;;;;;;;11.82;4.85;;;12.30;1.00;;;;;;7362681;19;20050;-68
2023/05/27 03:16:10;;;;;;;15.65;4.85;;;12.20;1.00;;;;;;7364507;19;20002;-68
2023/05/27 03:18:41;;;;;;;13.73;4.70;;;12.20;1.00;;;;;;7363008;19;20021;-69
2023/05/27 03:21:11;;;;;;;18.10;4.88;;;12.20;1.00;;;;;;7384380;19;20022;-68
2023/05/27 03:23:43;;;;;;;12.30;4.88;;;12.10;1.00;;;;;;7363633;19;20538;-68
2023/05/27 03:26:14;;;;;;;16.63;5.03;;;12.10;1.00;;;;;;7364621;19;20048;-68
2023/05/27 03:28:46;;;;;;;12.20;4.95;;;12.00;1.00;;;;;;7361570;19;20014;-68
2023/05/27 03:31:17;;;;;;;11.65;4.85;;;12.10;1.00;;;;;;7362760;19;20097;-68
2023/05/27 03:33:47;;;;;;;12.55;5.00;;;12.10;1.00;;;;;;7361987;19;20637;-68
2023/05/27 03:36:17;;;;;;;8.27;4.25;;;12.00;1.00;;;;;;7384864;19;20018;-68
2023/05/27 03:38:49;;;;;;;12.35;4.80;;;12.00;1.00;;;;;;7362572;19;20074;-69
2023/05/27 03:41:19;;;;;;;15.27;5.10;;;12.00;1.00;;;;;;7362379;19;20637;-69
2023/05/27 03:43:49;;;;;;;11.57;4.47;;;12.00;1.00;;;;;;7367877;19;20474;-69
2023/05/27 03:46:19;;;;;;;13.50;5.07;;;12.00;1.00;;;;;;7371112;19;20048;-68
2023/05/27 03:48:49;;;;;;;16.20;4.97;;;12.20;1.00;;;;;;7368649;19;20482;-69
2023/05/27 03:51:19;;;;;;;13.20;4.68;;;12.40;1.00;;;;;;7390003;19;20022;-68
2023/05/27 03:53:51;;;;;;;16.92;5.18;;;12.50;1.00;;;;;;7368988;19;20018;-68
2023/05/27 03:56:21;;;;;;;11.00;4.78;;;12.70;1.00;;;;;;7370500;19;20565;-69
2023/05/27 03:58:53;;;;;;;16.10;4.75;;;12.60;1.00;;;;;;7369071;19;20035;-69
2023/05/27 04:01:23;;;;;;;13.32;5.22;;;12.50;1.00;;;;;;7368236;19;20046;-68
2023/05/27 04:03:53;;;;;;;14.75;4.30;;;12.80;1.00;;;;;;7369690;19;20018;-69
2023/05/27 04:06:23;;;;;;;11.15;4.57;;;12.90;1.00;;;;;;7392373;19;20031;-69
2023/05/27 04:08:55;;;;;;;12.80;3.97;;;12.90;1.00;;;;;;7368296;19;20018;-69
2023/05/27 04:11:29;;;;;;;12.18;4.75;;;13.20;1.00;;;;;;7368273;19;20052;-69
2023/05/27 04:13:58;;;;;;;14.45;4.88;;;13.30;1.00;;;;;;7367346;19;20429;-68
2023/05/27 04:16:30;;;;;;;10.45;3.92;;;13.40;1.00;;;;;;7371150;19;20175;-69
2023/05/27 04:19:01;;;;;;;8.77;4.65;;;13.50;1.00;;;;;;7367379;19;20018;-68
2023/05/27 04:21:31;;;;;;;15.35;5.13;;;13.60;1.00;;;;;;7391523;19;20035;-68
2023/05/27 04:24:04;;;;;;;16.27;4.93;;;13.80;1.00;;;;;;7368783;19;20019;-68
2023/05/27 04:26:34;;;;;;;12.57;4.72;;;14.20;1.00;;;;;;7369532;19;20017;-68
2023/05/27 04:29:09;;;;;;;9.60;4.18;;;14.60;1.00;;;;;;7367544;19;20398;-68
2023/05/27 04:31:39;;;;;;;;;;;14.90;1.00;;;;;;7370478;19;20085;-68
2023/05/27 04:34:09;;;;;;;10.15;3.90;;;14.90;1.00;;;;;;7368123;19;19915;-69
2023/05/27 04:36:39;;;;;;;13.40;4.78;;;14.90;1.00;;;;;;7382097;19;20470;-69
2023/05/27 04:39:11;;;;;;;13.73;4.85;;;15.30;1.00;;;;;;7389487;19;20043;-69
2023/05/27 04:41:44;;;;;;;20.90;4.85;;;15.60;1.00;;;;;;7369197;19;20015;-68
2023/05/27 04:44:14;;;;;;;14.32;4.80;;;15.60;1.00;;;;;;7368752;19;20054;-68
2023/05/27 04:46:45;;;;;;;11.15;4.18;;;16.30;1.00;;;;;;7368473;19;20041;-68
2023/05/27 04:49:16;;;;;;;14.95;4.30;;;16.10;1.00;;;;;;7367153;19;20031;-68
2023/05/27 04:51:47;;;;;;;11.95;4.75;;;16.20;1.00;;;;;;7369554;19;20047;-69
2023/05/27 04:54:19;;;;;;;15.95;4.35;;;16.40;1.00;;;;;;7387966;19;20027;-68
2023/05/27 04:56:51;;;;;;;13.00;3.95;;;17.00;1.00;;;;;;7367613;19;20019;-68
2023/05/27 04:59:29;;;;;;;11.38;4.00;;;16.50;1.00;;;;;;7367566;19;20030;-69
2023/05/27 05:02:21;;;;;;;18.08;4.68;;;16.50;1.00;;;;;;7367282;19;20038;-68
2023/05/27 05:04:52;;;;;;;11.52;4.80;;;16.50;1.00;;;;;;7368202;19;20020;-68
2023/05/27 05:07:22;;;;;;;15.45;4.63;;;16.90;1.00;;;;;;7366984;19;20031;-68
2023/05/27 05:09:55;;;;;;;11.00;4.32;;;17.30;1.00;;;;;;7366972;19;20444;-68
2023/05/27 05:12:25;;;;;;;16.88;4.70;;;17.40;1.00;;;;;;7388801;19;20489;-68
2023/05/27 05:14:55;;;;;;;12.85;4.35;;;17.60;1.00;;;;;;7365934;19;20462;-68
2023/05/27 05:17:25;;;;;;;11.55;4.13;;;17.60;1.00;;;;;;7365803;19;20042;-68
2023/05/27 05:19:56;;;;;;;13.48;4.60;;;17.80;1.00;;;;;;7366463;19;20374;-68
2023/05/27 05:22:28;;;;;;;11.82;3.92;;;18.40;1.00;;;;;;7368271;19;20010;-68
2023/05/27 05:25:01;;;;;;;15.32;4.78;;;18.20;1.00;;;;;;7367217;19;20489;-68
2023/05/27 05:27:31;;;;;;;12.45;3.95;;;17.90;1.00;;;;;;7388029;19;20086;-68
2023/05/27 05:30:01;;;;;;;13.45;4.35;;;18.10;1.00;;;;;;7365186;19;20022;-68
2023/05/27 05:32:31;;;;;;;9.57;4.25;;;17.60;1.00;;;;;;7368167;19;20074;-68
2023/05/27 05:35:01;;;;;;;11.57;4.15;;;18.10;1.00;;;;;;7365314;19;20085;-68
2023/05/27 05:37:31;;;;;;;14.48;4.88;;;17.90;1.00;;;;;;7365347;19;20015;-67
2023/05/27 05:40:04;;;;;;;13.00;4.03;;;18.00;1.00;;;;;;7365416;19;20471;-67
2023/05/27 05:42:34;;;;;;;11.35;4.10;;;17.60;1.00;;;;;;7389781;19;20050;-67
2023/05/27 05:45:05;;;;;;;11.77;4.25;;;17.60;1.00;;;;;;7366208;19;20819;-67
2023/05/27 05:47:35;;;;;;;9.27;3.85;;;17.50;1.00;;;;;;7365095;19;20045;-67
2023/05/27 05:50:05;;;;;;;8.90;3.88;;;17.40;1.00;;;;;;7364305;19;20355;-67
2023/05/27 05:52:35;;;;;;;12.93;4.03;;;17.80;1.00;;;;;;7367897;19;20062;-67
2023/05/27 05:55:09;;;;;;;14.63;4.75;;;17.60;1.00;;;;;;7365704;19;20010;-67
2023/05/27 05:57:39;;;;;;;12.00;4.50;;;17.50;1.00;;;;;;7381507;19;20022;-68
2023/05/27 06:00:11;;;;;;;18.65;4.78;;;17.10;1.00;;;;;;7386341;19;20022;-68
2023/05/27 06:02:41;;;;;;;12.43;4.25;;;17.10;1.00;;;;;;7365746;19;20078;-68
2023/05/27 06:05:11;;;;;;;11.30;4.60;;;17.30;1.00;;;;;;7365200;19;20015;-68
2023/05/27 06:07:42;;;;;;;11.93;4.05;;;17.90;1.00;;;;;;7365339;19;20694;-68
2023/05/27 06:10:16;;;;;;;12.82;4.50;;;18.20;1.00;;;;;;7364935;19;20014;-68
2023/05/27 06:12:46;;;;;;;;;;;17.00;1.00;;;;;;7366137;19;20021;-69
2023/05/27 06:15:16;;;;;;;12.95;3.80;;;17.00;1.00;;;;;;7386653;19;19921;-68
2023/05/27 06:17:47;;;;;;;15.75;4.10;;;17.10;1.00;;;;;;7341997;19;20086;-68
2023/05/27 06:20:17;;;;;;;8.77;3.78;;;17.50;1.00;;;;;;7364725;19;20018;-68
2023/05/27 06:22:48;;;;;;;12.27;4.18;;;17.50;1.00;;;;;;7366002;19;20442;-68
2023/05/27 06:25:20;;;;;;;15.75;4.22;;;17.50;1.00;;;;;;7364352;19;20047;-68
2023/05/27 06:27:50;;;;;;;10.10;4.45;;;17.40;1.00;;;;;;7364711;19;20018;-68
2023/05/27 06:30:20;;;;;;;12.85;4.00;;;17.80;1.00;;;;;;7385590;19;20011;-68
2023/05/27 06:32:50;;;;;;;13.65;3.72;;;17.80;1.00;;;;;;7364974;19;20044;-68
2023/05/27 06:35:20;;;;;;;12.05;4.57;;;17.20;1.00;;;;;;7364145;19;20014;-68
2023/05/27 06:37:50;;;;;;;13.52;4.10;;;17.50;1.00;;;;;;7364033;19;20010;-68
2023/05/27 06:40:23;;;;;;;14.43;4.35;;;18.00;1.00;;;;;;7364869;19;20014;-68
2023/05/27 06:42:53;;;;;;;11.93;3.83;;;18.00;1.00;;;;;;7365447;19;20018;-68
2023/05/27 06:45:23;;;;;;;14.38;4.72;;;16.90;1.00;;;;;;7386155;19;20090;-68
2023/05/27 06:47:53;;;;;;;12.40;4.40;;;16.50;1.00;;;;;;7363764;19;20041;-69
2023/05/27 06:50:23;;;;;;;10.10;3.70;;;16.60;1.00;;;;;;7363064;19;20016;-68
2023/05/27 06:52:53;;;;;;;10.65;3.88;;;15.80;1.00;;;;;;7365955;19;20379;-67
2023/05/27 06:55:25;;;;;;;12.32;3.88;;;16.20;1.00;;;;;;7363088;19;20026;-68
2023/05/27 06:57:55;;;;;;;10.18;3.95;;;16.40;1.00;;;;;;7363735;19;20043;-67
2023/05/27 07:00:25;;;;;;;12.25;3.72;;;16.50;1.00;;;;;;7382971;19;20434;-67
2023/05/27 07:02:55;;;;;;;10.02;3.40;;;16.90;1.00;;;;;;7363714;19;20015;-67
2023/05/27 07:05:25;;;;;;;12.90;4.32;;;17.10;1.00;;;;;;7363469;19;20017;-67
2023/05/27 07:07:55;;;;;;;11.55;3.55;;;16.70;1.00;;;;;;7363224;19;20038;-68
2023/05/27 07:10:28;;;;;;;11.60;4.07;;;16.70;1.00;;;;;;7341552;19;20038;-67
2023/05/27 07:12:58;;;;;;;9.65;3.78;;;17.10;1.00;;;;;;7384868;19;20014;-69
2023/05/27 07:15:28;;;;;;;12.07;4.13;;;17.20;1.00;;;;;;7384751;19;20061;-67
2023/05/27 07:17:58;;;;;;;10.00;3.67;;;17.40;1.00;;;;;;7363370;19;20022;-68
2023/05/27 07:20:28;;;;;;;9.35;3.92;;;17.30;1.00;;;;;;7368525;19;20028;-68
2023/05/27 07:23:01;;;;;;;12.48;4.00;;;17.30;1.00;;;;;;7370581;19;20111;-67
2023/05/27 07:25:33;;;;;;;11.73;4.40;;;17.50;1.00;;;;;;7369306;19;20033;-68
2023/05/27 07:28:03;;;;;;;13.93;3.65;;;17.60;1.00;;;;;;7368538;19;20018;-68
2023/05/27 07:30:34;;;;;;;9.13;4.00;;;17.50;1.00;;;;;;7389031;19;20018;-68
2023/05/27 07:33:04;;;;;;;12.70;4.28;;;17.40;1.00;;;;;;7369603;19;20621;-69
2023/05/27 07:35:34;;;;;;;14.13;4.63;;;17.60;1.00;;;;;;7368469;19;20022;-67
2023/05/27 07:38:03;;;;;;;11.82;4.18;;;17.50;1.00;;;;;;7368839;19;20021;-68
2023/05/27 07:40:36;;;;;;;10.57;3.80;;;17.60;1.00;;;;;;7369464;19;20014;-68
2023/05/27 07:43:06;;;;;;;12.27;3.80;;;17.90;1.00;;;;;;7370124;19;20091;-68
2023/05/27 07:45:36;;;;;;;12.00;4.60;;;17.90;1.00;;;;;;7390716;19;20467;-69
2023/05/27 07:48:06;;;;;;;14.15;4.32;;;18.00;1.00;;;;;;7368731;19;20006;-68
2023/05/27 07:50:36;;;;;;;12.95;4.13;;;18.10;1.00;;;;;;7367973;19;20118;-69
2023/05/27 07:53:06;;;;;;;12.15;4.25;;;17.80;1.00;;;;;;7369866;19;20022;-68
2023/05/27 07:55:38;;;;;;;11.73;4.20;;;18.30;1.00;;;;;;7367175;19;20013;-68
2023/05/27 07:58:08;;;;;;;10.57;3.97;;;18.00;1.00;;;;;;7368185;19;20018;-68
2023/05/27 08:00:38;;;;;;;11.20;4.10;;;18.20;1.00;;;;;;7389554;19;20639;-68
2023/05/27 08:03:09;;;;;;;9.80;3.90;;;18.30;1.00;;;;;;7369542;19;20095;-68
2023/05/27 08:05:39;;;;;;;14.65;4.60;;;18.20;1.00;;;;;;7367835;19;20014;-67
2023/05/27 08:08:09;;;;;;;11.85;4.20;;;18.30;1.00;;;;;;7368991;19;20014;-68
2023/05/27 08:10:41;;;;;;;8.68;3.65;;;18.60;1.00;;;;;;7369044;19;20018;-68
2023/05/27 08:13:11;;;;;;;11.55;4.03;;;19.00;1.00;;;;;;7369845;19;20099;-68
2023/05/27 08:15:41;;;;;;;11.07;4.18;;;19.40;1.00;;;;;;7366215;19;20103;-69
2023/05/27 08:18:11;;;;;;;11.45;4.32;;;19.10;1.00;;;;;;7388337;19;20015;-68
2023/05/27 08:20:42;;;;;;;11.80;3.83;;;18.80;1.00;;;;;;7367144;19;20130;-69
2023/05/27 08:23:12;;;;;;;11.23;4.50;;;18.80;1.00;;;;;;7369353;19;20074;-68
2023/05/27 08:25:44;;;;;;;14.00;4.95;;;19.00;1.00;;;;;;7367070;19;20102;-69
2023/05/27 08:28:14;;;;;;;11.38;4.40;;;19.40;1.00;;;;;;7366976;19;20017;-69
2023/05/27 08:30:44;;;;;;;9.05;4.22;;;19.60;1.00;;;;;;7364493;19;20094;-69
2023/05/27 08:33:15;;;;;;;12.15;4.55;;;19.40;1.00;;;;;;7391057;19;20019;-68
2023/05/27 08:35:45;;;;;;;13.50;4.60;;;18.80;1.00;;;;;;7366954;19;20569;-68
2023/05/27 08:38:15;;;;;;;8.63;3.80;;;19.30;1.00;;;;;;7367222;19;20031;-68
2023/05/27 08:40:47;;;;;;;12.32;4.28;;;19.30;1.00;;;;;;7367025;19;20022;-68
2023/05/27 08:43:18;;;;;;;12.35;4.18;;;19.50;1.00;;;;;;7369272;19;20014;-68
2023/05/27 08:45:48;;;;;;;11.43;4.38;;;19.60;1.00;;;;;;7368393;19;20022;-68
2023/05/27 08:48:18;;;;;;;7.90;4.13;;;19.40;1.00;;;;;;7387872;19;20095;-68
2023/05/27 08:50:49;;;;;;;7.20;4.10;;;19.70;1.00;;;;;;7365504;19;20015;-67
2023/05/27 08:53:20;;;;;;;8.13;3.90;;;19.60;1.00;;;;;;7366683;19;20039;-68
2023/05/27 08:55:54;;;;;;;12.52;4.43;;;19.40;1.00;;;;;;7366995;19;20060;-68
2023/05/27 08:58:24;;;;;;;10.77;4.10;;;19.80;1.00;;;;;;7365110;19;20010;-67
2023/05/27 09:00:55;;;;;;;8.50;4.25;;;20.20;1.00;;;;;;7365261;19;20371;-68
2023/05/27 09:03:27;;;;;;;8.55;4.00;;;19.90;1.00;;;;;;7386905;19;20486;-68
2023/05/27 09:05:58;;;;;;;11.20;4.60;;;19.90;1.00;;;;;;7365189;19;20097;-69
2023/05/27 09:08:28;;;;;;;10.70;4.40;;;20.00;1.00;;;;;;7365236;19;20081;-69
2023/05/27 09:11:34;;;;;;;13.70;4.38;;;20.00;1.00;;;;;;7366468;19;20030;-70
2023/05/27 09:14:04;;;;;;;8.80;4.15;;;20.00;1.00;;;;;;7365439;19;20496;-68
2023/05/27 09:16:34;;;;;;;13.23;4.50;;;20.00;1.00;;;;;;7363776;19;20182;-68
2023/05/27 09:19:04;;;;;;;14.13;4.35;;;20.20;1.00;;;;;;7365935;19;20022;-68
2023/05/27 09:21:35;;;;;;;8.50;4.00;;;20.00;1.00;;;;;;7387333;19;20019;-68
2023/05/27 09:24:05;;;;;;;8.27;4.00;;;20.40;1.00;;;;;;7363309;19;20117;-69
2023/05/27 09:26:39;;;;;;;13.13;5.07;;;20.70;1.00;;;;;;7359719;19;20073;-68
2023/05/27 09:29:09;;;;;;;10.43;4.57;;;20.70;1.00;;;;;;7360628;19;20493;-69
2023/05/27 09:31:42;;;;;;;12.30;4.93;;;20.60;1.00;;;;;;7362421;19;20074;-69
2023/05/27 09:34:14;;;;;;;16.00;4.55;;;20.20;1.00;;;;;;7361230;19;20020;-69
2023/05/27 09:36:47;;;;;;;9.18;4.25;;;20.40;1.00;;;;;;7359732;19;20403;-69
2023/05/27 09:39:18;;;;;;;12.93;4.50;;;20.70;1.00;;;;;;7381855;19;20018;-69
2023/05/27 09:41:56;;;;;;;9.63;4.70;;;20.90;1.00;;;;;;7364893;19;20275;-68
2023/05/27 09:44:29;;;;;;;7.88;3.80;;;20.90;1.00;;;;;;7365788;19;20031;-68
2023/05/27 09:47:01;;;;;;;9.88;4.60;;;20.60;1.00;;;;;;7364645;19;20466;-68
2023/05/27 09:49:34;;;;;;;9.00;4.25;;;20.40;1.00;;;;;;7363913;19;20089;-68
2023/05/27 09:52:06;;;;;;;12.70;4.25;;;21.20;1.00;;;;;;7366351;19;20018;-68
2023/05/27 09:54:37;;;;;;;10.75;3.90;;;21.30;1.00;;;;;;7386355;19;20031;-68
2023/05/27 09:57:12;;;;;;;10.98;5.28;;;21.40;1.00;;;;;;7363544;19;20018;-68
2023/05/27 09:59:42;;;;;;;11.70;5.05;;;21.30;1.00;;;;;;7363801;19;20014;-68
2023/05/27 10:02:17;;;;;;;10.43;4.25;;;21.30;1.00;;;;;;7367049;19;20014;-68
2023/05/27 10:04:50;;;;;;;10.35;4.72;;;21.20;1.00;;;;;;7366016;19;20014;-68
2023/05/27 10:07:22;;;;;;;10.77;4.45;;;21.70;1.00;;;;;;7364605;19;20036;-68
2023/05/27 10:10:01;;;;;;;9.45;4.82;;;21.80;1.00;;;;;;7365167;19;20018;-68
2023/05/27 10:12:33;;;;;;;10.10;4.20;;;21.70;1.00;;;;;;7388658;19;20014;-68
2023/05/27 10:15:03;;;;;;;11.27;5.25;;;21.60;1.00;;;;;;7364441;19;20035;-68
2023/05/27 10:17:44;;;;;;;9.35;4.43;;;21.70;1.00;;;;;;7362670;19;20015;-67
2023/05/27 10:20:14;;;;;;;10.13;4.20;;;21.60;1.00;;;;;;7363589;19;20018;-68
2023/05/27 10:22:46;;;;;;;9.88;4.53;;;21.70;1.00;;;;;;7365181;19;20474;-68
2023/05/27 10:25:16;;;;;;;13.07;4.28;;;22.20;1.00;;;;;;7364538;19;20014;-68
2023/05/27 10:27:50;;;;;;;8.90;4.13;;;21.50;1.00;;;;;;7364013;19;20022;-68
2023/05/27 10:30:20;;;;;;;8.68;3.80;;;22.10;1.00;;;;;;7384216;19;20484;-69
2023/05/27 10:32:51;;;;;;;10.02;4.80;;;21.90;1.00;;;;;;7365046;19;20720;-68
2023/05/27 10:35:21;;;;;;;9.93;4.30;;;21.80;1.00;;;;;;7363435;19;20085;-68
2023/05/27 10:37:51;;;;;;;8.50;4.63;;;21.90;1.00;;;;;;7362560;19;20010;-69
2023/05/27 10:40:28;;;;;;;12.43;5.00;;;22.10;1.00;;;;;;7363885;19;20023;-68
2023/05/27 10:43:04;;;;;;;8.80;4.80;;;21.90;1.00;;;;;;7364855;19;20029;-69
2023/05/27 10:45:35;;;;;;;11.23;4.60;;;22.20;1.00;;;;;;7383747;19;20074;-68
2023/05/27 10:48:05;;;;;;;10.43;4.60;;;22.00;1.00;;;;;;7362609;19;20048;-68
2023/05/27 10:50:37;;;;;;;12.18;4.38;;;22.20;1.00;;;;;;7361214;19;20588;-68
2023/05/27 10:53:09;;;;;;;14.20;5.40;;;22.20;1.00;;;;;;7362662;19;20035;-67
2023/05/27 10:55:41;;;;;;;9.68;4.75;;;22.70;1.00;;;;;;7363071;19;20018;-67
2023/05/27 10:58:14;;;;;;;10.60;4.40;;;22.20;1.00;;;;;;7362507;19;20077;-67
2023/05/27 11:00:45;;;;;;;12.45;4.10;;;22.20;1.00;;;;;;7362078;19;20010;-68
2023/05/27 11:03:24;;;;;;;8.25;4.60;;;22.30;1.00;;;;;;7386780;19;20042;-67
2023/05/27 11:06:01;;;;;;;10.90;4.88;;;22.60;1.00;;;;;;7363024;19;20022;-67
2023/05/27 11:08:32;;;;;;;10.05;4.28;;;22.80;1.00;;;;;;7362608;19;20023;-67
2023/05/27 11:11:03;;;;;;;8.57;4.30;;;22.50;1.00;;;;;;7363007;19;20018;-67
2023/05/27 11:13:38;;;;;;;9.43;4.60;;;22.50;1.00;;;;;;7361144;19;20039;-67
2023/05/27 11:16:09;;;;;;;8.00;4.32;;;22.40;1.00;;;;;;7362799;19;20038;-67
2023/05/27 11:18:40;;;;;;;7.75;4.28;;;22.60;1.00;;;;;;7384131;19;20019;-67
2023/05/27 11:21:11;;;;;;;8.05;4.35;;;23.30;1.00;;;;;;7361327;19;20090;-67
2023/05/27 11:23:43;;;;;;;9.45;4.10;;;23.20;1.00;;;;;;7363925;19;20006;-67
2023/05/27 11:26:15;;;;;;;8.90;4.20;;;22.90;1.00;;;;;;7362643;19;20408;-67
2023/05/27 11:28:52;;;;;;;9.85;4.28;;;23.20;1.00;;;;;;7364049;19;20010;-67
2023/05/27 11:31:30;;;;;;;6.57;4.13;;;23.20;1.00;;;;;;7361332;19;20084;-67
2023/05/27 11:34:01;;;;;;;9.30;4.00;;;23.00;1.00;;;;;;7363897;19;20048;-67
2023/05/27 11:36:31;;;;;;;10.48;4.20;;;23.00;1.00;;;;;;7384669;19;20014;-67
2023/05/27 11:39:04;;;;;;;9.60;4.43;;;22.80;1.00;;;;;;7362657;19;20006;-67
2023/05/27 11:41:34;;;;;;;6.85;4.18;;;22.80;1.00;;;;;;7361564;19;20024;-67
2023/05/27 11:44:09;;;;;;;11.45;4.88;;;22.80;1.00;;;;;;7362413;19;20011;-68
2023/05/27 11:46:40;;;;;;;9.15;4.40;;;23.00;1.00;;;;;;7362470;19;20018;-67
2023/05/27 11:49:12;;;;;;;11.25;4.43;;;23.00;1.00;;;;;;7364229;19;20089;-68
2023/05/27 11:51:44;;;;;;;7.90;4.88;;;22.70;1.00;;;;;;7385127;19;20013;-68
2023/05/27 11:54:22;;;;;;;8.15;4.63;;;22.60;1.00;;;;;;7362672;19;20019;-69
2023/05/27 11:56:52;;;;;;;7.93;4.35;;;23.20;1.00;;;;;;7361530;19;20022;-67
2023/05/27 11:59:26;;;;;;;8.07;4.28;;;23.30;1.00;;;;;;7361534;19;20010;-68
2023/05/27 12:01:56;;;;;;;7.80;4.65;;;22.90;1.00;;;;;;7363039;19;20018;-66
2023/05/27 12:04:26;;;;;;;7.85;4.55;;;22.80;1.00;;;;;;7366503;19;20006;-67
2023/05/27 12:06:57;;;;;;;9.40;4.32;;;22.80;1.00;;;;;;7367653;19;20482;-67
2023/05/27 12:09:29;;;;;;;8.40;4.50;;;23.50;1.00;;;;;;7391376;19;20018;-67
2023/05/27 12:12:00;;;;;;;10.15;4.88;;;23.50;1.00;;;;;;7369504;19;20024;-67
2023/05/27 12:14:33;;;;;;;8.52;4.45;;;23.30;1.00;;;;;;7369107;19;20097;-67
2023/05/27 12:17:02;;;;;;;9.00;4.38;;;22.80;1.00;;;;;;7368967;19;20026;-67
2023/05/27 12:19:34;;;;;;;8.65;4.30;;;23.30;1.00;;;;;;7368841;19;20032;-68
2023/05/27 12:22:04;;;;;;;10.15;4.38;;;23.60;1.00;;;;;;7349704;19;20036;-68
2023/05/27 12:24:34;;;;;;;12.05;4.80;;;23.40;1.00;;;;;;7391379;19;20006;-66
2023/05/27 12:27:04;;;;;;;8.57;4.35;;;23.10;1.00;;;;;;7368163;19;20006;-68
2023/05/27 12:29:37;;;;;;;9.77;4.45;;;23.80;1.00;;;;;;7369429;19;20011;-67
2023/05/27 12:32:07;;;;;;;12.18;4.68;;;23.50;1.00;;;;;;7369791;19;20445;-66
2023/05/27 12:34:37;;;;;;;13.30;4.32;;;23.40;1.00;;;;;;7369643;19;20398;-68
2023/05/27 12:37:07;;;;;;;8.73;4.50;;;23.40;1.00;;;;;;7367035;19;20034;-67
2023/05/27 12:39:40;;;;;;;10.43;4.05;;;23.30;1.00;;;;;;7389437;19;20023;-67
2023/05/27 12:42:10;;;;;;;12.38;4.00;;;23.30;1.00;;;;;;7369342;19;20044;-68
2023/05/27 12:44:43;;;;;;;9.73;4.38;;;23.60;1.00;;;;;;7367222;19;20086;-67
2023/05/27 12:47:13;;;;;;;9.35;4.38;;;23.70;1.00;;;;;;7367805;19;20011;-66
2023/05/27 12:49:43;;;;;;;11.70;5.10;;;23.80;1.00;;;;;;7369395;19;20007;-66
2023/05/27 12:52:13;;;;;;;12.60;4.57;;;23.70;1.00;;;;;;7367189;19;20014;-67
2023/05/27 12:54:43;;;;;;;11.60;5.32;;;23.40;1.00;;;;;;7390063;19;20392;-67
2023/05/27 12:57:13;;;;;;;8.85;4.15;;;23.70;1.00;;;;;;7363155;19;20014;-67
2023/05/27 12:59:46;;;;;;;8.32;4.03;;;23.70;1.00;;;;;;7365577;19;20408;-68
2023/05/27 13:02:16;;;;;;;9.43;4.40;;;23.20;1.00;;;;;;7368196;19;20033;-67
2023/05/27 13:04:47;;;;;;;8.40;4.28;;;23.70;1.00;;;;;;7365743;19;20078;-67
2023/05/27 13:07:17;;;;;;;9.30;4.60;;;23.90;1.00;;;;;;7365211;19;20050;-66
2023/05/27 13:09:47;;;;;;;10.35;4.85;;;23.70;1.00;;;;;;7365379;19;20010;-66
2023/05/27 13:12:18;;;;;;;8.23;4.07;;;23.70;1.00;;;;;;7387331;19;20018;-66